createdAt,value
2023-05-21T00:00:54.131Z,3.30
2023-05-21T00:03:24.267Z,3.22
2023-05-21T00:05:52.488Z,2.97
2023-05-21T00:08:20.628Z,3.35
2023-05-21T00:10:48.940Z,3.30
2023-05-21T00:13:17.139Z,3.28
2023-05-21T00:15:45.556Z,3.22
2023-05-21T00:18:13.750Z,3.45
2023-05-21T00:20:43.245Z,2.88
2023-05-21T00:23:11.396Z,3.33
2023-05-21T00:25:39.520Z,3.00
2023-05-21T00:28:07.820Z,3.17
2023-05-21T00:30:35.950Z,3.00
2023-05-21T00:33:04.257Z,3.25
2023-05-21T00:35:32.405Z,3.28
2023-05-21T00:38:02.265Z,3.45
2023-05-21T00:42:58.330Z,3.53
2023-05-21T00:45:26.466Z,3.28
2023-05-21T00:47:55.641Z,2.95
2023-05-21T00:50:24.365Z,3.08
2023-05-21T00:52:52.551Z,3.05
2023-05-21T00:55:22.350Z,3.22
2023-05-21T01:00:18.829Z,3.08
2023-05-21T01:02:47.985Z,3.03
2023-05-21T01:05:16.280Z,3.00
2023-05-21T01:07:44.542Z,3.05
2023-05-21T01:10:13.579Z,2.95
2023-05-21T01:12:45.347Z,2.73
2023-05-21T01:15:14.231Z,3.17
2023-05-21T01:17:46.189Z,2.60
2023-05-21T01:20:18.132Z,2.80
2023-05-21T01:22:52.988Z,3.22
2023-05-21T01:25:21.227Z,2.95
2023-05-21T01:27:49.454Z,3.45
2023-05-21T01:30:19.271Z,2.80
2023-05-21T01:35:23.325Z,2.97
2023-05-21T01:37:57.538Z,3.00
2023-05-21T01:40:40.992Z,2.80
2023-05-21T01:43:10.562Z,2.83
2023-05-21T01:45:41.794Z,3.05
2023-05-21T01:48:11.427Z,3.03
2023-05-21T01:50:41.698Z,3.40
2023-05-21T01:53:11.194Z,3.03
2023-05-21T01:55:42.038Z,3.33
2023-05-21T01:58:10.554Z,3.22
2023-05-21T02:00:40.097Z,3.15
2023-05-21T02:03:08.796Z,2.85
2023-05-21T02:05:37.493Z,2.72
2023-05-21T02:08:08.410Z,2.78
2023-05-21T02:10:37.990Z,3.10
2023-05-21T02:13:06.116Z,2.85
2023-05-21T02:15:35.302Z,2.80
2023-05-21T02:18:04.443Z,3.05
2023-05-21T02:20:32.903Z,2.90
2023-05-21T02:23:01.036Z,2.83
2023-05-21T02:25:29.208Z,2.80
2023-05-21T02:27:58.716Z,3.13
2023-05-21T02:30:26.942Z,2.55
2023-05-21T02:32:58.747Z,3.03
2023-05-21T02:35:27.037Z,3.22
2023-05-21T02:37:59.005Z,2.90
2023-05-21T02:40:27.133Z,2.90
2023-05-21T02:42:55.289Z,3.00
2023-05-21T02:45:24.805Z,2.90
2023-05-21T02:47:52.987Z,3.00
2023-05-21T02:50:22.778Z,2.97
2023-05-21T02:52:51.066Z,2.92
2023-05-21T02:55:19.171Z,2.78
2023-05-21T02:57:47.312Z,2.90
2023-05-21T03:00:16.424Z,2.85
2023-05-21T03:02:46.154Z,2.70
2023-05-21T03:07:43.742Z,3.30
2023-05-21T03:10:12.261Z,2.60
2023-05-21T03:12:40.368Z,2.97
2023-05-21T03:15:09.520Z,3.50
2023-05-21T03:17:37.749Z,2.80
2023-05-21T03:20:08.890Z,3.15
2023-05-21T03:22:37.588Z,2.97
2023-05-21T03:25:06.198Z,3.03
2023-05-21T03:27:34.295Z,2.70
2023-05-21T03:30:02.473Z,3.08
2023-05-21T03:32:30.629Z,2.75
2023-05-21T03:34:58.890Z,2.70
2023-05-21T03:37:28.365Z,2.47
2023-05-21T03:39:56.568Z,3.03
2023-05-21T03:42:24.660Z,2.90
2023-05-21T03:44:52.787Z,2.50
2023-05-21T03:47:21.008Z,2.63
2023-05-21T03:49:49.207Z,2.75
2023-05-21T03:52:17.322Z,2.72
2023-05-21T03:54:46.798Z,2.75
2023-05-21T03:57:14.941Z,2.78
2023-05-21T03:59:43.081Z,2.90
2023-05-21T04:02:11.308Z,2.80
2023-05-21T04:04:39.493Z,2.65
2023-05-21T04:07:14.680Z,3.15
2023-05-21T04:09:43.177Z,3.20
2023-05-21T04:12:12.802Z,2.47
2023-05-21T04:14:40.989Z,2.58
2023-05-21T04:17:09.153Z,2.67
2023-05-21T04:19:37.349Z,3.25
2023-05-21T04:22:06.100Z,2.80
2023-05-21T04:24:34.212Z,3.00
2023-05-21T04:27:02.388Z,2.60
2023-05-21T04:29:31.883Z,2.60
2023-05-21T04:32:00.155Z,2.85
2023-05-21T04:34:28.297Z,2.90
2023-05-21T04:36:56.967Z,2.88
2023-05-21T04:39:25.161Z,2.90
2023-05-21T04:41:54.655Z,2.40
2023-05-21T04:44:23.302Z,2.63
2023-05-21T04:46:52.971Z,2.50
2023-05-21T04:49:22.076Z,2.63
2023-05-21T04:51:50.459Z,2.90
2023-05-21T04:54:18.613Z,2.90
2023-05-21T04:56:47.447Z,2.65
2023-05-21T04:59:16.022Z,2.50
2023-05-21T05:01:44.152Z,2.40
2023-05-21T05:04:13.702Z,2.90
2023-05-21T05:06:41.850Z,3.00
2023-05-21T05:09:10.055Z,3.00
2023-05-21T05:11:38.168Z,2.83
2023-05-21T05:14:06.541Z,3.00
2023-05-21T05:16:35.718Z,2.60
2023-05-21T05:19:04.221Z,2.80
2023-05-21T05:21:33.809Z,5.35
2023-05-21T05:24:02.296Z,5.20
2023-05-21T05:26:30.558Z,5.55
2023-05-21T05:28:58.677Z,5.28
2023-05-21T05:31:27.250Z,6.35
2023-05-21T05:33:55.368Z,5.80
2023-05-21T05:36:24.278Z,6.43
2023-05-21T05:38:53.887Z,6.15
2023-05-21T05:41:22.739Z,6.07
2023-05-21T05:43:50.934Z,6.45
2023-05-21T05:46:19.173Z,6.70
2023-05-21T05:48:47.535Z,5.95
2023-05-21T05:51:17.211Z,6.47
2023-05-21T05:53:45.328Z,6.43
2023-05-21T05:56:17.150Z,6.25
2023-05-21T05:58:45.313Z,7.00
2023-05-21T06:01:13.588Z,6.55
2023-05-21T06:03:42.044Z,6.32
2023-05-21T06:06:10.310Z,6.25
2023-05-21T06:08:40.654Z,6.07
2023-05-21T06:11:08.816Z,6.60
2023-05-21T06:13:38.389Z,6.50
2023-05-21T06:16:07.637Z,7.38
2023-05-21T06:18:35.892Z,6.63
2023-05-21T06:21:04.087Z,6.57
2023-05-21T06:23:33.167Z,6.65
2023-05-21T06:26:01.280Z,6.90
2023-05-21T06:28:29.394Z,6.78
2023-05-21T06:30:58.871Z,6.70
2023-05-21T06:33:27.565Z,6.95
2023-05-21T06:35:56.540Z,6.68
2023-05-21T06:38:24.654Z,7.07
2023-05-21T06:40:52.785Z,6.95
2023-05-21T06:43:20.986Z,6.88
2023-05-21T06:45:49.245Z,6.90
2023-05-21T06:48:18.772Z,6.50
2023-05-21T06:50:46.906Z,6.63
2023-05-21T06:53:16.454Z,6.60
2023-05-21T06:55:45.487Z,6.68
2023-05-21T06:58:13.622Z,6.67
2023-05-21T07:00:41.816Z,5.97
2023-05-21T07:03:10.016Z,6.10
2023-05-21T07:05:39.951Z,6.93
2023-05-21T07:08:08.607Z,7.10
2023-05-21T07:10:37.797Z,7.05
2023-05-21T07:13:06.027Z,6.90
2023-05-21T07:15:34.499Z,7.03
2023-05-21T07:18:03.570Z,7.47
2023-05-21T07:20:31.736Z,6.93
2023-05-21T07:23:01.214Z,8.10
2023-05-21T07:25:29.356Z,6.68
2023-05-21T07:27:57.500Z,6.97
2023-05-21T07:30:25.654Z,7.18
2023-05-21T07:32:53.784Z,6.57
2023-05-21T07:35:22.186Z,7.68
2023-05-21T07:37:50.330Z,7.38
2023-05-21T07:40:19.877Z,7.50
2023-05-21T07:42:48.097Z,7.15
2023-05-21T07:45:16.266Z,6.70
2023-05-21T07:47:46.100Z,6.93
2023-05-21T07:50:15.895Z,6.97
2023-05-21T07:55:12.026Z,7.32
2023-05-21T07:57:41.769Z,6.70
2023-05-21T08:02:39.244Z,7.30
2023-05-21T08:05:08.189Z,7.97
2023-05-21T08:07:36.481Z,7.60
2023-05-21T08:10:05.125Z,7.45
2023-05-21T08:12:33.703Z,8.07
2023-05-21T08:15:03.199Z,7.57
2023-05-21T08:17:31.318Z,7.63
2023-05-21T08:19:59.438Z,7.68
2023-05-21T08:22:27.638Z,7.28
2023-05-21T08:24:55.794Z,7.40
2023-05-21T08:27:23.953Z,7.63
2023-05-21T08:29:52.516Z,7.65
2023-05-21T08:32:22.172Z,7.50
2023-05-21T08:37:18.451Z,7.78
2023-05-21T08:39:46.568Z,8.45
2023-05-21T08:42:36.476Z,7.95
2023-05-21T08:45:07.779Z,6.70
2023-05-21T08:47:38.117Z,6.25
2023-05-21T08:50:09.763Z,5.65
2023-05-21T08:52:37.884Z,5.20
2023-05-21T08:55:06.744Z,5.50
2023-05-21T08:57:35.277Z,5.70
2023-05-21T09:00:04.904Z,4.95
2023-05-21T09:05:05.686Z,5.28
2023-05-21T09:07:40.680Z,4.90
2023-05-21T09:10:13.238Z,5.25
2023-05-21T09:12:41.520Z,5.40
2023-05-21T09:15:10.205Z,4.82
2023-05-21T09:17:38.420Z,5.03
2023-05-21T09:20:12.644Z,4.72
2023-05-21T09:22:44.729Z,6.32
2023-05-21T09:25:15.038Z,7.40
2023-05-21T09:27:43.472Z,8.10
2023-05-21T09:30:12.961Z,7.30
2023-05-21T09:35:12.824Z,7.97
2023-05-21T09:37:43.789Z,7.72
2023-05-21T09:40:14.009Z,6.80
2023-05-21T09:42:42.457Z,7.55
2023-05-21T09:45:11.388Z,7.22
2023-05-21T09:47:44.535Z,7.45
2023-05-21T09:50:14.765Z,7.95
2023-05-21T09:52:43.187Z,7.63
2023-05-21T09:55:13.411Z,6.97
2023-05-21T09:57:44.965Z,8.27
2023-05-21T10:00:20.164Z,6.72
2023-05-21T10:02:49.083Z,6.60
2023-05-21T10:05:19.037Z,6.32
2023-05-21T10:07:51.436Z,6.00
2023-05-21T10:10:21.560Z,6.00
2023-05-21T10:12:53.136Z,6.10
2023-05-21T10:15:25.457Z,5.63
2023-05-21T10:17:55.699Z,5.22
2023-05-21T10:20:25.825Z,5.47
2023-05-21T10:22:54.816Z,5.80
2023-05-21T10:25:24.137Z,5.78
2023-05-21T10:30:23.083Z,5.80
2023-05-21T10:32:51.574Z,4.63
2023-05-21T10:35:20.150Z,5.83
2023-05-21T10:37:52.200Z,5.23
2023-05-21T10:40:20.407Z,4.93
2023-05-21T10:43:09.958Z,5.15
2023-05-21T10:45:52.444Z,4.53
2023-05-21T10:48:34.544Z,4.75
2023-05-21T10:51:17.610Z,5.05
2023-05-21T10:54:03.639Z,4.70
2023-05-21T10:56:39.313Z,5.18
2023-05-21T10:59:18.318Z,4.63
2023-05-21T11:01:46.683Z,4.55
2023-05-21T11:04:15.794Z,4.60
2023-05-21T11:06:48.638Z,5.18
2023-05-21T11:09:18.162Z,4.60
2023-05-21T11:11:48.638Z,4.50
2023-05-21T11:14:35.685Z,4.97
2023-05-21T11:17:05.061Z,4.47
2023-05-21T11:19:40.686Z,4.35
2023-05-21T11:22:22.429Z,4.07
2023-05-21T11:24:52.727Z,4.38
2023-05-21T11:27:37.439Z,4.38
2023-05-21T11:30:08.125Z,4.38
2023-05-21T11:32:39.703Z,4.15
2023-05-21T11:35:08.883Z,4.40
2023-05-21T11:37:40.681Z,4.43
2023-05-21T11:40:27.272Z,6.40
2023-05-21T11:42:56.730Z,5.55
2023-05-21T11:45:29.415Z,4.93
2023-05-21T11:47:57.733Z,5.13
2023-05-21T11:50:27.334Z,5.23
2023-05-21T11:52:56.050Z,5.10
2023-05-21T11:55:26.202Z,5.63
2023-05-21T11:57:55.654Z,5.20
2023-05-21T12:00:24.421Z,5.18
2023-05-21T12:02:54.356Z,5.10
2023-05-21T12:05:23.353Z,4.88
2023-05-21T12:07:51.561Z,4.65
2023-05-21T12:10:23.035Z,4.90
2023-05-21T12:12:56.383Z,4.78
2023-05-21T12:15:27.075Z,3.58
2023-05-21T12:17:56.881Z,4.38
2023-05-21T12:20:28.205Z,4.32
2023-05-21T12:22:58.832Z,4.28
2023-05-21T12:25:27.509Z,4.70
2023-05-21T12:27:58.593Z,4.38
2023-05-21T12:30:27.585Z,4.40
2023-05-21T12:32:59.716Z,4.35
2023-05-21T12:35:27.990Z,5.10
2023-05-21T12:37:56.738Z,5.47
2023-05-21T12:40:37.471Z,5.55
2023-05-21T12:43:07.559Z,5.13
2023-05-21T12:45:36.778Z,5.15
2023-05-21T12:50:35.590Z,5.03
2023-05-21T12:53:04.083Z,4.75
2023-05-21T12:55:32.994Z,4.20
2023-05-21T12:58:08.163Z,4.20
2023-05-21T13:00:38.342Z,4.35
2023-05-21T13:03:07.368Z,4.05
2023-05-21T13:05:36.037Z,4.30
2023-05-21T13:08:04.359Z,4.10
2023-05-21T13:10:32.455Z,4.05
2023-05-21T13:13:00.609Z,4.00
2023-05-21T13:15:28.760Z,3.80
2023-05-21T13:18:01.122Z,4.30
2023-05-21T13:20:29.656Z,4.13
2023-05-21T13:22:57.777Z,3.67
2023-05-21T13:25:28.957Z,3.93
2023-05-21T13:27:58.641Z,3.97
2023-05-21T13:30:26.917Z,4.15
2023-05-21T13:32:55.626Z,4.30
2023-05-21T13:35:25.257Z,4.35
2023-05-21T13:37:53.394Z,3.90
2023-05-21T13:40:21.547Z,3.67
2023-05-21T13:42:50.597Z,3.83
2023-05-21T13:45:20.965Z,3.40
2023-05-21T13:47:49.634Z,3.47
2023-05-21T13:52:47.362Z,3.47
2023-05-21T13:55:16.845Z,3.45
2023-05-21T13:57:45.838Z,3.42
2023-05-21T14:00:16.108Z,3.38
2023-05-21T14:02:45.317Z,3.70
2023-05-21T14:05:14.032Z,3.50
2023-05-21T14:07:42.801Z,3.67
2023-05-21T14:10:13.376Z,3.50
2023-05-21T14:12:42.214Z,3.22
2023-05-21T14:15:11.989Z,3.38
2023-05-21T14:17:42.422Z,3.22
2023-05-21T14:20:11.398Z,3.60
2023-05-21T14:22:39.812Z,3.05
2023-05-21T14:25:08.517Z,3.33
2023-05-21T14:27:38.832Z,3.38
2023-05-21T14:30:08.036Z,3.38
2023-05-21T14:32:36.263Z,3.25
2023-05-21T14:35:05.295Z,3.13
2023-05-21T14:37:33.555Z,3.30
2023-05-21T14:40:01.717Z,3.22
2023-05-21T14:42:30.633Z,3.58
2023-05-21T14:45:16.919Z,3.42
2023-05-21T14:47:47.797Z,3.10
2023-05-21T14:50:17.727Z,3.10
2023-05-21T14:52:46.086Z,3.65
2023-05-21T14:55:16.640Z,3.20
2023-05-21T14:57:45.123Z,3.40
2023-05-21T15:00:15.597Z,3.30
2023-05-21T15:02:43.881Z,3.35
2023-05-21T15:05:12.114Z,3.55
2023-05-21T15:07:40.261Z,2.83
2023-05-21T15:10:09.930Z,3.03
2023-05-21T15:12:38.035Z,3.22
2023-05-21T15:15:07.282Z,3.20
2023-05-21T15:17:37.313Z,3.03
2023-05-21T15:20:06.531Z,3.47
2023-05-21T15:22:35.267Z,3.50
2023-05-21T15:27:31.950Z,3.00
2023-05-21T15:30:00.523Z,3.03
2023-05-21T15:32:28.746Z,2.88
2023-05-21T15:34:58.493Z,2.90
2023-05-21T15:37:27.478Z,2.90
2023-05-21T15:39:55.600Z,2.90
2023-05-21T15:42:23.716Z,3.03
2023-05-21T15:44:51.835Z,3.00
2023-05-21T15:47:20.076Z,2.80
2023-05-21T15:49:48.200Z,3.13
2023-05-21T15:52:19.806Z,3.00
2023-05-21T15:54:47.950Z,3.22
2023-05-21T15:57:16.151Z,2.92
2023-05-21T15:59:44.280Z,2.90
2023-05-21T16:02:12.389Z,2.85
2023-05-21T16:04:40.481Z,3.58
2023-05-21T16:07:08.694Z,3.03
2023-05-21T16:09:38.625Z,2.90
2023-05-21T16:12:07.557Z,2.92
2023-05-21T16:14:35.652Z,3.40
2023-05-21T16:17:03.958Z,2.78
2023-05-21T16:19:32.250Z,3.22
2023-05-21T16:22:02.222Z,2.85
2023-05-21T16:24:30.331Z,6.72
2023-05-21T16:26:59.816Z,7.18
2023-05-21T16:29:27.916Z,7.32
2023-05-21T16:31:56.111Z,7.20
2023-05-21T16:34:24.256Z,5.35
2023-05-21T16:36:52.785Z,4.20
2023-05-21T16:39:20.977Z,3.72
2023-05-21T16:41:49.094Z,3.95
2023-05-21T16:44:20.169Z,3.63
2023-05-21T16:46:48.312Z,3.40
2023-05-21T16:49:16.439Z,2.90
2023-05-21T16:51:44.536Z,2.37
2023-05-21T16:54:12.709Z,2.40
2023-05-21T16:56:40.799Z,2.10
2023-05-21T16:59:09.436Z,1.90
2023-05-21T17:01:39.058Z,2.00
2023-05-21T17:04:07.297Z,2.00
2023-05-21T17:06:35.453Z,1.80
2023-05-21T17:09:04.051Z,1.33
2023-05-21T17:11:32.326Z,4.72
2023-05-21T17:14:00.530Z,5.00
2023-05-21T17:16:28.687Z,7.60
2023-05-21T17:18:58.264Z,8.67
2023-05-21T17:21:27.405Z,9.40
2023-05-21T17:23:55.508Z,8.57
2023-05-21T17:26:23.624Z,9.73
2023-05-21T17:28:51.723Z,8.85
2023-05-21T17:31:19.980Z,8.93
2023-05-21T17:33:48.078Z,8.50
2023-05-21T17:36:17.567Z,9.45
2023-05-21T17:38:45.670Z,8.77
2023-05-21T17:41:14.850Z,8.95
2023-05-21T17:46:10.931Z,9.35
2023-05-21T17:48:39.019Z,9.52
2023-05-21T17:51:07.140Z,9.40
2023-05-21T17:53:36.639Z,9.05
2023-05-21T17:56:04.886Z,8.82
2023-05-21T17:58:33.031Z,8.88
2023-05-21T18:01:01.288Z,8.52
2023-05-21T18:03:29.464Z,8.77
2023-05-21T18:05:57.661Z,10.40
2023-05-21T18:08:25.831Z,5.90
2023-05-21T18:10:55.302Z,6.55
2023-05-21T18:13:23.412Z,8.07
2023-05-21T18:15:51.837Z,8.07
2023-05-21T18:18:21.631Z,9.20
2023-05-21T18:20:50.201Z,9.98
2023-05-21T18:23:18.559Z,9.90
2023-05-21T18:25:46.973Z,9.93
2023-05-21T18:28:16.454Z,9.57
2023-05-21T18:30:44.872Z,9.93
2023-05-21T18:33:15.324Z,10.33
2023-05-21T18:35:44.577Z,10.23
2023-05-21T18:38:12.808Z,10.23
2023-05-21T18:40:41.002Z,10.18
2023-05-21T18:43:10.871Z,9.93
2023-05-21T18:45:40.583Z,10.60
2023-05-21T18:48:08.741Z,9.65
2023-05-21T18:50:38.410Z,10.45
2023-05-21T18:53:07.019Z,9.73
2023-05-21T18:55:36.310Z,10.57
2023-05-21T18:58:04.431Z,9.40
2023-05-21T19:00:34.146Z,9.63
2023-05-21T19:03:03.834Z,9.57
2023-05-21T19:05:32.011Z,9.68
2023-05-21T19:08:00.130Z,10.02
2023-05-21T19:10:28.256Z,9.65
2023-05-21T19:12:57.301Z,8.90
2023-05-21T19:15:25.537Z,8.98
2023-05-21T19:17:53.770Z,9.38
2023-05-21T19:20:27.173Z,9.90
2023-05-21T19:22:55.617Z,9.05
2023-05-21T19:25:24.041Z,8.43
2023-05-21T19:27:52.850Z,8.88
2023-05-21T19:30:21.035Z,9.60
2023-05-21T19:32:49.196Z,8.63
2023-05-21T19:35:17.529Z,9.55
2023-05-21T19:37:47.016Z,8.95
2023-05-21T19:40:17.678Z,8.70
2023-05-21T19:42:45.991Z,9.23
2023-05-21T19:45:15.578Z,9.07
2023-05-21T19:47:44.570Z,8.85
2023-05-21T19:50:12.960Z,9.18
2023-05-21T19:52:41.102Z,8.98
2023-05-21T19:55:11.195Z,9.30
2023-05-21T19:57:39.793Z,8.93
2023-05-21T20:00:10.368Z,8.80
2023-05-21T20:02:38.596Z,8.82
2023-05-21T20:05:07.718Z,9.00
2023-05-21T20:07:35.926Z,8.95
2023-05-21T20:10:04.209Z,8.98
2023-05-21T20:12:33.718Z,9.25
2023-05-21T20:15:01.922Z,9.10
2023-05-21T20:17:30.526Z,8.45
2023-05-21T20:20:00.467Z,8.65
2023-05-21T20:22:28.657Z,8.63
2023-05-21T20:24:57.769Z,8.40
2023-05-21T20:27:26.152Z,8.25
2023-05-21T20:29:55.658Z,8.50
2023-05-21T20:32:23.779Z,7.63
2023-05-21T20:35:02.849Z,8.25
2023-05-21T20:37:32.457Z,7.80
2023-05-21T20:40:00.629Z,8.68
2023-05-21T20:42:34.753Z,9.23
2023-05-21T20:45:04.911Z,8.60
2023-05-21T20:47:33.985Z,9.25
2023-05-21T20:50:03.282Z,9.65
2023-05-21T20:52:31.599Z,9.68
2023-05-21T20:55:00.143Z,9.38
2023-05-21T20:57:28.608Z,10.38
2023-05-21T20:59:56.947Z,10.02
2023-05-21T21:02:27.008Z,10.82
2023-05-21T21:04:56.308Z,10.68
2023-05-21T21:07:24.466Z,10.43
2023-05-21T21:09:52.580Z,10.30
2023-05-21T21:12:26.467Z,10.35
2023-05-21T21:14:55.208Z,10.75
2023-05-21T21:17:23.429Z,10.35
2023-05-21T21:19:52.906Z,11.18
2023-05-21T21:22:21.558Z,11.27
2023-05-21T21:24:49.716Z,11.32
2023-05-21T21:27:17.861Z,10.85
2023-05-21T21:29:46.700Z,11.15
2023-05-21T21:32:14.906Z,11.00
2023-05-21T21:34:43.063Z,10.43
2023-05-21T21:37:13.615Z,10.43
2023-05-21T21:39:41.817Z,10.77
2023-05-21T21:42:10.016Z,9.27
2023-05-21T21:44:39.250Z,10.07
2023-05-21T21:47:07.505Z,9.48
2023-05-21T21:49:35.688Z,9.25
2023-05-21T21:52:03.865Z,9.48
2023-05-21T21:54:33.406Z,9.15
2023-05-21T21:59:29.642Z,9.45
2023-05-21T22:01:57.844Z,9.20
2023-05-21T22:04:26.038Z,8.98
2023-05-21T22:06:54.478Z,9.32
2023-05-21T22:09:23.217Z,8.88
2023-05-21T22:11:53.388Z,8.57
2023-05-21T22:14:21.540Z,9.18
2023-05-21T22:16:53.152Z,8.93
2023-05-21T22:19:22.101Z,8.48
2023-05-21T22:21:50.385Z,7.90
2023-05-21T22:24:31.448Z,8.18
2023-05-21T22:27:02.659Z,8.48
2023-05-21T22:31:58.739Z,8.25
2023-05-21T22:34:26.872Z,8.07
2023-05-21T22:36:55.004Z,7.63
2023-05-21T22:39:23.131Z,7.53
2023-05-21T22:41:51.519Z,7.85
2023-05-21T22:44:21.159Z,8.35
2023-05-21T22:49:17.704Z,8.02
2023-05-21T22:51:46.389Z,8.00
2023-05-21T22:54:14.615Z,8.17
2023-05-21T22:56:43.265Z,8.07
2023-05-21T22:59:11.406Z,7.75
2023-05-21T23:01:40.937Z,7.63
2023-05-21T23:06:36.996Z,7.90
2023-05-21T23:09:05.238Z,8.07
2023-05-21T23:11:33.455Z,7.93
2023-05-21T23:14:01.654Z,7.70
2023-05-21T23:16:30.823Z,7.10
2023-05-21T23:19:01.247Z,6.97
2023-05-21T23:21:29.668Z,7.88
2023-05-21T23:23:57.824Z,7.78
2023-05-21T23:26:26.641Z,7.18
2023-05-21T23:28:54.752Z,7.17
2023-05-21T23:31:22.949Z,7.40
2023-05-21T23:33:52.252Z,7.50
2023-05-21T23:36:22.090Z,7.25
2023-05-21T23:38:50.193Z,8.05
2023-05-21T23:41:18.369Z,8.02
2023-05-21T23:43:46.473Z,7.55
2023-05-21T23:46:14.662Z,7.82
2023-05-21T23:48:42.826Z,7.85
2023-05-21T23:51:10.963Z,7.82
2023-05-21T23:53:40.423Z,7.72
2023-05-21T23:56:08.713Z,7.05
2023-05-21T23:58:37.028Z,7.78
